Pure Air, Missouri
Current Conditions -  °F | °C
As of 8:07 PM on Thursday 18 Dec 2014 (Local Time) from KIRK Reporting Station
Overcast Overcast  
Wind Chill: -5°   Ceiling: 900
Heat Index: -2°   Visibility: 7mi
Dew Point: -3°   Wind: 5mph
Humidity: 92%   Direction: 70°ENE
Pressure: 30.26"   Gusts: NA
Location:  40.2969°N, 92.7524°W
Report Text: KIRK 190207Z AUTO 07004KT 7SM OVC009 M02/M03 A3026 RMK AO2 T10171028
Loading
Personal Weather Stations






























Interactive Weather Map New forecast layout! Learn more

10-Day Weather Forecast

Advertisements
Track Severe Weather on mobile